Airfield :







YOU CAN JOIN US ON...

 
LOGIN :

Register | Disclaimer

   EN    FR    IT 

 









Legend :    VFR   Marginal VFR   IFR   Intensive IFR   Very Intensive IFR
Visi :
Ceiling :
>= 8 km
>= 3000ft
5 to 8 km
1000 to 3000 ft
1500m to 5 km
500 to 1000 ft
800 to 1500m
200 to 500 ft
< 800m
< 200 ft
Symbols :   Thunderstorms  Fog  Heavy snow  Heavy precipitations  Wind > 20 kt






- Airport Elevation : 342 ft


KCON - Concord Municipal

CURRENT METAR :
  • 170451Z AUTO 07003KT 10SM CLR M11/M15 A3052 RMK AO2 SLP341 T11061150 400001111

EXPIRED METARs :
  • 170351Z AUTO 03003KT 10SM CLR M09/M16 A3053 RMK AO2 SLP344 T10941161
  • 170251Z AUTO 33004KT 10SM CLR M07/M17 A3053 RMK AO2 SLP345 T10721167 53008

TAF KCON
Valid from the 17 at 00:00 until the 18 at 00:00 UTC


162320Z 1700/1724 VRB02KT P6SM FEW250
FM172200 VRB03KT P6SM BKN019



MET'MAP, your aeronautical weather chart ! - Copyright ORBIFLY December 2007 - Disclaimer

ORBIFLY MET'MAP TEAM :

Programming & Development : Alexandra Zaïnal
Concept & Development : Baudouin d'Aumeries
Co-Development & Prog : Marc-Olivier Méhu
Technical & hardware support : Manuel Goepfert

Contact : metmap@orbifly.com




SOURCES & CREDITS :

   NOAA